x

South Georgian Bay (45143) Wave Buoy

9:00pm - Sun 19th Oct 2014 All times are CDT. -5 hours from GMT.

  • Sig Wave height 1.6ft
  • Peak Period 3s
  • Wind
    11mph, 16mph gusts
  • Sea Temp 53°f
  • Air Temp 45°f
  • Sea Pressure 1014.8mb
  • South Georgian Bay
  • South Georgian Bay

More Historic Weather Station data

Upgrade to MSW Pro to gain access to the past 30 days of data for over 8000 Wavebouys and Weather Stations around the globe.

Join Pro

Comparision Forecast

View Surf forecast
   
Sun 10/19 9:00pm 1.6ft 3s 11 16 mph 1014.8mb 53f 45f
8:00pm 2ft 3s 13 16 mph 1015.6mb 53f 45f
7:00pm 1.6ft 3s 13 18 mph 1016.2mb 53f 44f
6:00pm 1.6ft 3s 13 16 mph 1016.6mb 53f 44f
5:00pm 1.6ft 3s 16 20 mph 1016.7mb 53f 45f
4:00pm 1ft 3s 13 18 mph 1017mb 54f 45f
3:00pm 1ft 3s 4 11 mph 1017.5mb 54f 44f
2:00pm 1ft 4s 4 7 mph 1018.2mb 54f 43f
1:00pm 1.3ft 4s 4 7 mph 1018.6mb 53f 42f
12:00pm 1.3ft 4s 7 11 mph 1019.4mb 53f 41f
11:00am 1.6ft 4s 11 16 mph 1020.1mb 53f 40f
10:00am 2ft 4s 11 13 mph 1020.4mb 53f 40f
9:00am 2ft 4s 11 16 mph 1020.3mb 53f 40f
8:00am 2.5ft 4s 13 18 mph 1020.1mb 53f 40f
7:00am 2.5ft 4s 13 18 mph 1020mb 53f 40f
6:00am 3ft 5s 13 18 mph 1019.5mb 53f 40f
5:00am 3ft 5s 16 20 mph 1019.6mb 53f 40f
4:00am 3.5ft 5s 16 18 mph 1019.2mb 53f 40f
3:00am 3.5ft 5s 16 20 mph 1018.8mb 53f 40f
2:00am 3.5ft 5s 16 20 mph 1018.3mb 53f 40f
1:00am 4.5ft 6s 13 20 mph 1018.2mb 53f 40f
12:00am 5ft 6s 18
mph
1017.7mb 53f 40f
Sat 10/18 11:00pm 5.5ft 6s 22 27 mph 1017.3mb 53f 41f
10:00pm 5.5ft 6s 22 29 mph 1017.2mb 53f 41f
9:00pm 6ft 6s 22 29 mph 1016.7mb 53f 42f
8:00pm 6ft 6s 22 29 mph 1016.5mb 53f 43f
7:00pm 6ft 6s 20 29 mph 1015.6mb 53f 44f
6:00pm 6.5ft 6s 22 29 mph 1014.7mb 53f 44f
5:00pm 6.5ft 6s 22 31 mph 1013.7mb 53f 45f
4:00pm 7ft 7s 25 34 mph 1013mb 53f 45f
3:00pm 7ft 7s 25 29 mph 1012.1mb 53f 44f
2:00pm 8ft 7s 25 31 mph 1011.4mb 54f 44f
1:00pm 8.5ft 7s 27 31 mph 1010.6mb 54f 44f
12:00pm 9ft 7s 27 34 mph 1010.1mb 54f 44f
11:00am 10ft 7s 29 36 mph 1009.3mb 54f 44f
10:00am 9ft 7s 31 38 mph 1007.7mb 54f 44f
9:00am 9ft 7s 29 36 mph 1006.8mb 54f 44f
8:00am 9ft 7s 29 38 mph 1005.7mb 53f 45f
7:00am 7.5ft 6s 29 36 mph 1004.2mb 54f 46f
6:00am 7ft 6s 29 34 mph 1002.8mb 54f 46f
5:00am  -   -  29
mph
- - -
4:00am 4.5ft 5s 22 27 mph 1000.5mb 54f 48f
3:00am 4.5ft 5s 20 25 mph 999.6mb 54f 49f
2:00am 3.5ft 4s 20 27 mph 999mb 54f 49f
1:00am 3ft 4s 20 25 mph 998.7mb 54f 50f
12:00am 2.5ft 4s 18 22 mph 998mb 55f 50f
Fri 10/17 11:00pm 2.5ft 4s 18 20 mph 997.2mb 55f 53f
10:00pm 2ft 3s 18 22 mph 997mb 55f 52f
9:00pm 1.6ft 3s 22 27 mph 996.3mb 55f 53f
8:00pm 1.6ft 4s 16 18 mph 996.1mb 55f 55f
7:00pm 2ft 3s 13 16 mph 996.2mb 55f 55f
6:00pm 1.6ft 4s 11 13 mph 996.4mb 55f 55f
5:00pm 2ft 4s 11 13 mph 996.3mb 55f 55f
4:00pm 2ft 3s 18 20 mph 996.3mb 55f 55f
3:00pm 2ft 3s 11 13 mph 996.2mb 55f 56f
2:00pm 1.6ft 3s 16 18 mph 996.3mb 55f 56f
1:00pm 1.6ft 3s 13 16 mph 996.4mb 54f 55f
12:00pm 2ft 3s 13 18 mph 996.9mb 54f 55f
11:00am 2ft 3s 11 13 mph 997.6mb 54f 55f
10:00am 2ft 3s 13 18 mph 998.1mb 54f 54f
9:00am 2ft 3s 18 20 mph 998.3mb 54f 54f
8:00am 2ft 3s 13 18 mph 998.5mb 54f 53f
7:00am 2ft 3s 13 18 mph 998.8mb 54f 53f
6:00am 1.6ft 3s 16 18 mph 998.5mb 55f 54f
5:00am 1.6ft 4s 13 16 mph 999.1mb 55f 55f
4:00am 2ft 3s 11 13 mph 999.5mb 55f 54f
3:00am 2.5ft 4s 13 16 mph 999.8mb 55f 53f
2:00am 2.5ft 4s 16 20 mph 999.9mb 55f 53f
1:00am 2.5ft 4s 18 20 mph 1000.5mb 54f 53f
12:00am 2.5ft 3s 13 18 mph 1001.4mb 54f 54f
Thu 10/16 11:00pm 2.5ft 3s 18 20 mph 1001.8mb 54f 54f
10:00pm 2.5ft 4s 16 18 mph 1001.9mb 54f 54f
9:00pm 2ft 4s 13 18 mph 1001.9mb 54f 54f
8:00pm 2.5ft 4s 16 20 mph 1002mb 54f 54f
7:00pm 2.5ft 4s 13 16 mph 1002.5mb 54f 54f
6:00pm 2.5ft 4s 13 16 mph 1002.8mb 54f 53f
5:00pm 2.5ft 4s 13 18 mph 1003.1mb 54f 54f
4:00pm 2.5ft 4s 16 18 mph 1003.1mb 54f 54f
3:00pm 2.5ft 4s 13 16 mph 1003.2mb 54f 53f
2:00pm 2.5ft 4s 16 20 mph 1003.3mb 55f 53f
1:00pm 2.5ft 4s 13 16 mph 1003.8mb 54f 53f
12:00pm 2.5ft 5s 7 11 mph 1004.2mb 54f 53f
11:00am  -   -  13
mph
1004.6mb - 54f
10:00am 3ft 4s 16 18 mph 1005mb 54f 54f
9:00am 3ft 4s 18 20 mph 1005.7mb 54f 53f
8:00am 2.5ft 4s 18 20 mph 1006.1mb 54f 53f
7:00am 2.5ft 4s 18 20 mph 1006.8mb 54f 54f
6:00am 2ft 3s 18 20 mph 1006.9mb 54f 53f
5:00am 1.6ft 3s 16 18 mph 1007.1mb 54f 54f